Archiv-/Tagesdaten

--Timestamp---	Temp	Chill	HIndex	Humid	Dewpt	Wind	HiWind	WindDir	Rain	Barom	Solar	ET	UV
--------------	----	-----	------	-----	-----	----	------	-------	----	-----	-----	--	--
20071010 00:05	6.1	6.1	6.1	90	4.6	0	2	180	0.00	1022.760	0	0.000	0
20071010 00:10	6.0	6.0	6.0	90	4.5	0	0	180	0.00	1022.760	0	0.000	0
20071010 00:15	5.9	5.9	5.9	91	4.6	0	2	180	0.00	1022.726	0	0.000	0
20071010 00:20	5.9	5.9	5.9	91	4.5	0	0	180	0.00	1022.692	0	0.000	0
20071010 00:25	5.9	5.9	5.9	91	4.5	0	2	180	0.00	1022.692	0	0.000	0
20071010 00:30	5.9	5.9	5.9	91	4.5	0	2	180	0.00	1022.692	0	0.000	0
20071010 00:35	5.8	5.8	5.8	91	4.5	0	3	180	0.00	1022.658	0	0.000	0
20071010 00:40	5.8	5.8	5.8	91	4.5	0	3	180	0.00	1022.658	0	0.000	0
20071010 00:45	5.8	5.8	5.8	90	4.3	0	2	180	0.00	1022.760	0	0.000	0
20071010 00:50	5.7	5.7	5.7	90	4.2	0	2	180	0.00	1022.760	0	0.000	0
20071010 00:55	5.6	5.6	5.6	91	4.2	0	0	180	0.00	1022.760	0	0.000	0
20071010 01:00	5.5	5.5	5.5	91	4.1	0	2	180	0.00	1022.726	0	0.000	0
20071010 01:05	5.4	5.4	5.4	91	4.1	0	2	180	0.00	1022.760	0	0.000	0
20071010 01:10	5.3	5.3	5.3	91	4.0	0	2	180	0.00	1022.794	0	0.000	0
20071010 01:15	5.2	5.2	5.2	91	3.9	0	0	180	0.00	1022.760	0	0.000	0
20071010 01:20	5.2	5.2	5.2	91	3.8	0	0	180	0.00	1022.760	0	0.000	0
20071010 01:25	5.1	5.1	5.1	91	3.8	0	2	180	0.00	1022.692	0	0.000	0
20071010 01:30	5.1	5.1	5.1	92	3.9	0	0	180	0.00	1022.625	0	0.000	0
20071010 01:35	5.1	5.1	5.1	92	3.9	0	2	180	0.00	1022.625	0	0.000	0
20071010 01:40	5.0	5.0	5.0	91	3.7	0	3	180	0.00	1022.591	0	0.000	0
20071010 01:45	5.0	5.0	5.0	91	3.7	0	2	180	0.00	1022.557	0	0.000	0
20071010 01:50	5.0	5.0	5.0	91	3.7	0	2	180	0.00	1022.557	0	0.000	0
20071010 01:55	4.9	4.9	4.9	91	3.6	0	2	180	0.00	1022.557	0	0.000	0
20071010 02:00	4.8	4.8	4.8	91	3.5	0	0	180	0.00	1022.557	0	0.000	0
20071010 02:05	4.7	4.7	4.7	91	3.4	0	0	180	0.00	1022.557	0	0.000	0
20071010 02:10	4.6	4.6	4.6	91	3.3	0	0	180	0.00	1022.726	0	0.000	0
20071010 02:15	4.5	4.5	4.5	91	3.2	0	0	180	0.00	1022.726	0	0.000	0
20071010 02:20	4.3	4.3	4.3	91	3.0	0	0	180	0.00	1022.726	0	0.000	0
20071010 02:25	4.2	4.2	4.2	91	2.9	0	0	180	0.00	1022.658	0	0.000	0
20071010 02:30	4.1	4.1	4.1	91	2.8	0	0	180	0.00	1022.625	0	0.000	0
20071010 02:35	4.1	4.1	4.1	91	2.7	0	0	180	0.00	1022.591	0	0.000	0
20071010 02:40	3.9	3.9	3.9	91	2.6	0	0	180	0.00	1022.523	0	0.000	0
20071010 02:45	3.9	3.9	3.9	91	2.6	0	0	180	0.00	1022.523	0	0.000	0
20071010 02:50	3.8	3.8	3.8	92	2.7	0	0	180	0.00	1022.455	0	0.000	0
20071010 02:55	3.8	3.8	3.8	92	2.6	0	0	180	0.00	1022.421	0	0.000	0
20071010 03:00	3.7	3.7	3.7	92	2.5	0	0	180	0.00	1022.387	0	0.000	0
20071010 03:05	3.7	3.7	3.7	92	2.5	0	0	180	0.00	1022.489	0	0.000	0
20071010 03:10	3.7	3.7	3.7	93	2.6	0	2	180	0.00	1022.387	0	0.000	0
20071010 03:15	3.8	3.8	3.8	93	2.8	0	2	180	0.00	1022.387	0	0.000	0
20071010 03:20	3.8	3.8	3.8	93	2.8	0	0	180	0.00	1022.354	0	0.000	0
20071010 03:25	3.9	3.9	3.9	93	2.9	0	0	180	0.00	1022.252	0	0.000	0
20071010 03:30	3.9	3.9	3.9	93	2.9	0	0	180	0.00	1022.184	0	0.000	0
20071010 03:35	4.0	4.0	4.0	93	3.0	0	0	180	0.00	1022.150	0	0.000	0
20071010 03:40	4.0	4.0	4.0	93	3.0	0	0	180	0.00	1022.150	0	0.000	0
20071010 03:45	4.0	4.0	4.0	93	3.0	0	0	180	0.00	1022.117	0	0.000	0
20071010 03:50	3.9	3.9	3.9	93	2.9	0	0	180	0.00	1022.015	0	0.000	0
20071010 03:55	3.9	3.9	3.9	93	2.9	0	0	180	0.00	1022.015	0	0.000	0
20071010 04:00	3.9	3.9	3.9	93	2.9	0	0	180	0.00	1021.981	0	0.000	0
20071010 04:05	3.9	3.9	3.9	93	2.9	0	0	180	0.00	1021.947	0	0.000	0
20071010 04:10	3.9	3.9	3.9	93	2.9	0	0	180	0.00	1021.981	0	0.000	0
20071010 04:15	3.9	3.9	3.9	93	2.9	0	2	180	0.00	1021.981	0	0.000	0
20071010 04:20	4.0	4.0	4.0	93	3.0	0	2	180	0.00	1022.015	0	0.000	0
20071010 04:25	3.9	3.9	3.9	93	2.9	0	0	180	0.00	1021.913	0	0.000	0
20071010 04:30	3.9	3.9	3.9	93	2.9	0	0	180	0.00	1021.846	0	0.000	0
20071010 04:35	3.8	3.8	3.8	93	2.8	0	0	180	0.00	1021.812	0	0.000	0
20071010 04:40	3.8	3.8	3.8	93	2.8	0	0	180	0.00	1021.846	0	0.000	0
20071010 04:45	3.8	3.8	3.8	93	2.8	0	3	180	0.00	1021.880	0	0.000	0
20071010 04:50	3.7	3.7	3.7	92	2.5	0	2	180	0.00	1021.913	0	0.000	0
20071010 04:55	3.4	3.4	3.4	92	2.2	0	2	180	0.00	1021.981	0	0.000	0
20071010 05:00	3.2	3.2	3.2	92	2.0	0	2	180	0.00	1021.981	0	0.000	0
20071010 05:05	3.2	3.2	3.2	92	2.0	0	0	180	0.00	1022.150	0	0.000	0
20071010 05:10	3.1	3.1	3.1	92	1.9	0	0	180	0.00	1022.117	0	0.000	0
20071010 05:15	3.1	3.1	3.1	93	2.0	0	0	180	0.00	1022.184	0	0.000	0
20071010 05:20	3.0	3.0	3.0	93	2.0	0	0	180	0.00	1022.252	0	0.000	0
20071010 05:25	2.9	2.9	2.9	92	1.8	0	0	180	0.00	1022.252	0	0.000	0
20071010 05:30	2.9	2.9	2.9	92	1.7	0	0	180	0.00	1022.320	0	0.000	0
20071010 05:35	2.8	2.8	2.8	92	1.6	0	0	180	0.00	1022.320	0	0.000	0
20071010 05:40	2.8	2.8	2.8	92	1.6	0	0	180	0.00	1022.320	0	0.000	0
20071010 05:45	2.7	2.7	2.7	92	1.6	0	0	180	0.00	1022.354	0	0.000	0
20071010 05:50	2.7	2.7	2.7	92	1.5	0	0	180	0.00	1022.354	0	0.000	0
20071010 05:55	2.6	2.6	2.6	92	1.4	0	0	180	0.00	1022.421	0	0.000	0
20071010 06:00	2.6	2.6	2.6	92	1.4	0	0	180	0.00	1022.421	0	0.000	0
20071010 06:05	2.5	2.5	2.5	92	1.3	0	2	180	0.00	1022.658	0	0.000	0
20071010 06:10	2.5	2.5	2.5	93	1.5	0	0	180	0.00	1022.726	0	0.000	0
20071010 06:15	2.5	2.5	2.5	93	1.5	0	2	180	0.00	1022.726	0	0.000	0
20071010 06:20	2.5	2.5	2.5	93	1.5	0	0	180	0.00	1022.726	0	0.000	0
20071010 06:25	2.4	2.4	2.4	93	1.4	0	2	180	0.00	1022.726	0	0.000	0
20071010 06:30	2.3	2.3	2.3	93	1.3	0	2	180	0.00	1022.726	0	0.000	0
20071010 06:35	2.3	2.3	2.3	93	1.3	0	2	180	0.00	1022.658	0	0.000	0
20071010 06:40	2.3	2.3	2.3	93	1.3	0	3	180	0.00	1022.658	0	0.000	0
20071010 06:45	2.3	2.3	2.3	93	1.3	0	2	180	0.00	1022.658	0	0.000	0
20071010 06:50	2.3	2.3	2.3	94	1.4	0	0	180	0.00	1022.658	0	0.000	0
20071010 06:55	2.3	2.3	2.3	94	1.5	0	2	180	0.00	1022.658	0	0.000	0
20071010 07:00	2.4	2.4	2.4	94	1.5	0	2	180	0.00	1022.726	0	0.000	0
20071010 07:05	2.4	2.4	2.4	94	1.6	0	0	180	0.00	1022.997	0	0.000	0
20071010 07:10	2.5	2.5	2.5	94	1.6	0	0	180	0.00	1022.929	0	0.000	0
20071010 07:15	2.6	2.6	2.6	94	1.7	0	0	180	0.00	1022.963	0	0.000	0
20071010 07:20	2.7	2.7	2.7	94	1.8	0	0	180	0.00	1022.895	0	0.000	0
20071010 07:25	2.7	2.7	2.7	94	1.9	0	0	180	0.00	1022.963	0	0.000	0
20071010 07:30	2.8	2.8	2.8	94	1.9	0	0	180	0.00	1022.963	0	0.000	0
20071010 07:35	2.8	2.8	2.8	95	2.1	0	0	180	0.00	1022.963	1	0.000	0
20071010 07:40	2.8	2.8	2.8	95	2.1	0	0	180	0.00	1023.031	6	0.000	0
20071010 07:45	2.8	2.8	2.8	95	2.1	0	0	180	0.00	1023.065	9	0.000	0
20071010 07:50	2.8	2.8	2.8	95	2.1	0	0	180	0.00	1023.065	11	0.000	0
20071010 07:55	2.8	2.8	2.8	94	1.9	0	0	180	0.20	1023.132	14	0.000	0
20071010 08:00	2.7	2.7	2.7	94	1.9	0	2	180	0.00	1023.099	18	0.000	0
20071010 08:05	2.7	2.7	2.7	94	1.9	0	0	180	0.00	1023.234	21	0.000	0
20071010 08:10	2.8	2.8	2.8	94	1.9	0	2	180	0.00	1023.268	26	0.000	0
20071010 08:15	2.8	2.8	2.8	94	1.9	0	2	180	0.00	1023.268	30	0.000	0
20071010 08:20	2.7	2.7	2.7	94	1.9	0	2	180	0.00	1023.336	33	0.000	0
20071010 08:25	2.7	2.7	2.7	95	1.9	0	2	180	0.00	1023.268	38	0.000	0
20071010 08:30	2.7	2.7	2.7	95	2.0	0	3	180	0.00	1023.370	45	0.000	0
20071010 08:35	2.7	2.7	2.7	95	2.0	0	3	180	0.00	1023.370	53	0.000	0
20071010 08:40	2.7	2.7	2.7	95	1.9	0	2	180	0.00	1023.437	60	0.000	0
20071010 08:45	2.7	2.7	2.7	95	2.0	0	0	180	0.00	1023.471	65	0.000	0
20071010 08:50	2.8	2.8	2.8	95	2.1	0	3	180	0.00	1023.471	66	0.000	0
20071010 08:55	2.8	2.8	2.8	95	2.1	0	3	180	0.00	1023.471	76	0.000	0
20071010 09:00	2.8	2.8	2.8	95	2.1	0	2	180	0.00	1023.505	77	0.020	0
20071010 09:05	3.0	3.0	3.0	95	2.3	0	2	180	0.00	1023.674	84	0.000	0
20071010 09:10	3.2	3.2	3.2	95	2.4	0	2	180	0.00	1023.674	92	0.000	0
20071010 09:15	3.2	3.2	3.2	95	2.5	0	0	180	0.00	1023.674	99	0.000	0
20071010 09:20	3.3	3.3	3.3	95	2.6	0	0	180	0.00	1023.708	101	0.000	0
20071010 09:25	3.4	3.4	3.4	95	2.7	0	0	180	0.00	1023.708	106	0.000	0
20071010 09:30	3.4	3.4	3.4	95	2.7	0	0	180	0.00	1023.708	113	0.000	0
20071010 09:35	3.5	3.5	3.5	95	2.8	0	0	180	0.00	1023.776	117	0.000	0
20071010 09:40	3.6	3.6	3.6	95	2.9	0	0	180	0.00	1023.810	121	0.000	0
20071010 09:45	3.8	3.8	3.8	95	3.1	0	0	180	0.00	1023.640	128	0.000	0
20071010 09:50	3.9	3.9	3.9	95	3.2	0	0	180	0.00	1023.674	129	0.000	0
20071010 09:55	4.1	4.1	4.1	95	3.4	0	2	180	0.00	1023.708	129	0.000	0
20071010 10:00	4.2	4.2	4.2	95	3.5	0	2	180	0.00	1023.742	135	0.040	1
20071010 10:05	4.2	4.2	4.2	95	3.5	0	2	180	0.00	1023.776	144	0.000	1
20071010 10:10	4.2	4.2	4.2	95	3.4	0	2	180	0.00	1023.742	148	0.000	1
20071010 10:15	4.3	4.3	4.3	95	3.5	0	3	180	0.00	1023.776	151	0.000	1
20071010 10:20	4.4	4.4	4.4	95	3.7	0	3	180	0.00	1023.776	156	0.000	1
20071010 10:25	4.5	4.5	4.5	95	3.8	0	2	180	0.00	1023.776	162	0.000	1
20071010 10:30	4.7	4.7	4.7	95	4.0	0	5	180	0.00	1023.844	160	0.000	1
20071010 10:35	4.6	4.6	4.6	95	3.8	2	5	180	0.00	1023.878	151	0.000	1
20071010 10:40	4.7	4.7	4.7	95	3.9	0	2	180	0.00	1023.776	155	0.000	1
20071010 10:45	4.8	4.8	4.8	95	4.1	0	5	180	0.00	1023.708	155	0.000	1
20071010 10:50	4.9	4.9	4.9	95	4.2	2	5	180	0.00	1023.742	161	0.000	1
20071010 10:55	5.0	5.0	5.0	95	4.3	0	3	180	0.00	1023.708	174	0.000	1
20071010 11:00	5.1	5.1	5.1	95	4.3	0	3	180	0.00	1023.708	182	0.040	1
20071010 11:05	5.1	5.1	5.1	95	4.4	0	3	180	0.00	1023.708	181	0.000	1
20071010 11:10	5.4	5.4	5.4	95	4.7	0	3	180	0.00	1023.640	179	0.000	1
20071010 11:15	5.5	5.5	5.5	95	4.8	0	3	112	0.00	1023.573	183	0.000	1
20071010 11:20	5.6	5.6	5.6	95	4.8	2	5	67	0.00	1023.607	181	0.000	1
20071010 11:25	5.6	5.6	5.6	95	4.8	0	2	67	0.00	1023.573	190	0.000	1
20071010 11:30	5.7	5.7	5.7	95	5.0	0	2	67	0.00	1023.539	186	0.000	1
20071010 11:35	5.9	5.9	5.9	95	5.1	0	2	67	0.00	1023.471	197	0.000	1
20071010 11:40	5.9	5.9	5.9	95	5.2	0	3	67	0.00	1023.336	205	0.000	1
20071010 11:45	6.0	6.0	6.0	95	5.3	2	3	67	0.00	1023.370	208	0.000	1
20071010 11:50	6.1	6.1	6.1	95	5.3	0	3	90	0.00	1023.302	208	0.000	1
20071010 11:55	6.2	6.2	6.2	95	5.4	0	5	45	0.00	1023.302	203	0.000	1
20071010 12:00	6.3	6.3	6.3	95	5.6	2	6	45	0.00	1023.302	215	0.060	1
20071010 12:05	6.4	6.4	6.4	95	5.6	2	3	45	0.00	1023.336	210	0.000	1
20071010 12:10	6.4	6.4	6.4	95	5.6	2	5	45	0.00	1023.336	211	0.000	1
20071010 12:15	6.5	6.5	6.5	95	5.8	2	6	22	0.00	1023.403	210	0.000	1
20071010 12:20	6.6	6.6	6.6	95	5.8	3	8	45	0.00	1023.370	207	0.000	1
20071010 12:25	6.6	6.6	6.6	95	5.9	3	8	22	0.00	1023.336	205	0.000	1
20071010 12:30	6.7	6.7	6.7	95	6.0	2	6	22	0.00	1023.302	217	0.000	1
20071010 12:35	6.8	6.8	6.8	95	6.1	3	6	22	0.00	1023.336	220	0.000	1
20071010 12:40	6.9	6.9	6.9	95	6.1	3	6	22	0.00	1023.302	222	0.000	1
20071010 12:45	7.0	7.0	7.0	95	6.3	3	6	45	0.00	1023.302	208	0.000	1
20071010 12:50	7.1	7.1	7.1	95	6.3	5	8	22	0.00	1023.268	192	0.000	1
20071010 12:55	7.1	7.1	7.1	95	6.4	3	6	67	0.00	1023.234	205	0.000	1
20071010 13:00	7.2	7.2	7.2	95	6.4	5	8	45	0.00	1023.268	211	0.060	1
20071010 13:05	7.2	7.2	7.2	95	6.5	3	8	67	0.00	1023.234	214	0.000	1
20071010 13:10	7.3	7.3	7.3	95	6.5	5	8	45	0.00	1023.166	182	0.000	1
20071010 13:15	7.4	7.4	7.4	95	6.6	3	6	45	0.00	1023.099	183	0.000	1
20071010 13:20	7.4	7.4	7.4	94	6.5	5	8	22	0.00	1023.065	188	0.000	1
20071010 13:25	7.6	7.6	7.6	94	6.7	5	10	22	0.00	1022.963	195	0.000	1
20071010 13:30	7.7	7.7	7.7	94	6.8	5	10	45	0.00	1022.997	197	0.000	1
20071010 13:35	7.7	7.7	7.7	93	6.7	3	6	45	0.00	1022.929	232	0.000	2
20071010 13:40	7.9	7.9	7.9	93	6.9	3	8	45	0.00	1022.862	213	0.000	1
20071010 13:45	8.2	8.2	8.2	92	6.9	5	10	67	0.00	1022.794	196	0.000	1
20071010 13:50	8.1	8.1	8.1	92	6.8	3	8	45	0.00	1022.794	238	0.000	1
20071010 13:55	8.1	7.1	8.1	92	6.8	6	11	22	0.00	1022.794	185	0.000	1
20071010 14:00	8.1	8.1	8.1	92	6.8	5	11	22	0.00	1022.726	185	0.060	1
20071010 14:05	8.2	8.2	8.2	92	6.9	5	10	22	0.00	1022.794	185	0.000	1
20071010 14:10	8.3	8.3	8.3	92	7.1	5	10	45	0.00	1022.794	162	0.000	1
20071010 14:15	8.3	8.3	8.3	92	7.1	5	11	22	0.00	1022.862	165	0.000	1
20071010 14:20	8.3	8.3	8.3	91	7.0	5	11	67	0.00	1022.862	196	0.000	1
20071010 14:25	8.5	8.5	8.5	91	7.1	5	10	0	0.00	1022.895	170	0.000	1
20071010 14:30	8.6	8.6	8.6	91	7.2	5	8	22	0.00	1022.862	168	0.000	1
20071010 14:35	8.6	8.6	8.6	91	7.2	5	8	22	0.00	1022.794	177	0.000	1
20071010 14:40	8.6	8.6	8.6	90	7.1	3	8	45	0.00	1022.828	165	0.000	1
20071010 14:45	8.7	8.7	8.7	90	7.2	5	8	67	0.00	1022.862	198	0.000	1
20071010 14:50	8.7	7.9	8.7	90	7.2	6	11	67	0.00	1022.862	201	0.000	1
20071010 14:55	8.8	8.8	8.8	90	7.3	5	8	67	0.00	1022.760	213	0.000	1
20071010 15:00	9.0	9.0	9.0	90	7.4	5	8	67	0.00	1022.726	195	0.060	1
20071010 15:05	9.1	8.3	9.1	89	7.4	6	10	67	0.00	1022.726	173	0.000	1
20071010 15:10	9.0	7.8	9.0	88	7.1	8	11	22	0.00	1022.726	197	0.000	1
20071010 15:15	9.0	8.2	9.0	89	7.3	6	11	22	0.00	1022.692	200	0.000	1
20071010 15:20	9.1	9.1	9.1	88	7.2	5	11	22	0.00	1022.760	149	0.000	1
20071010 15:25	9.0	8.2	9.0	88	7.1	6	11	22	0.00	1022.726	169	0.000	1
20071010 15:30	9.0	8.2	9.0	92	7.8	6	10	22	0.00	1022.726	225	0.000	1
20071010 15:35	9.1	8.3	9.1	88	7.2	6	10	45	0.00	1022.726	232	0.000	1
20071010 15:40	9.2	8.4	9.2	88	7.3	6	10	45	0.00	1022.726	193	0.000	1
20071010 15:45	9.2	9.2	9.2	88	7.3	5	6	67	0.00	1022.726	197	0.000	1
20071010 15:50	9.2	9.2	9.2	88	7.3	5	10	45	0.00	1022.523	186	0.000	1
20071010 15:55	9.1	8.3	9.1	88	7.2	6	11	67	0.00	1022.523	204	0.000	1
20071010 16:00	8.9	8.9	8.9	88	7.1	3	6	67	0.00	1022.625	185	0.080	1
20071010 16:05	8.9	8.9	8.9	89	7.2	5	8	67	0.00	1022.658	170	0.000	1
20071010 16:10	9.0	9.0	9.0	89	7.3	3	6	67	0.00	1022.658	153	0.000	1
20071010 16:15	9.1	9.1	9.1	89	7.3	3	8	90	0.00	1022.692	126	0.000	1
20071010 16:20	9.0	9.0	9.0	89	7.3	2	5	45	0.00	1022.591	136	0.000	1
20071010 16:25	9.1	9.1	9.1	89	7.3	2	5	67	0.00	1022.591	119	0.000	1
20071010 16:30	9.2	9.2	9.2	89	7.4	0	2	67	0.00	1022.455	97	0.000	1
20071010 16:35	9.3	9.3	9.3	88	7.4	0	3	90	0.00	1022.489	86	0.000	0
20071010 16:40	9.3	9.3	9.3	88	7.4	2	5	90	0.00	1022.523	89	0.000	0
20071010 16:45	9.4	9.4	9.4	87	7.4	2	3	45	0.00	1022.591	82	0.000	0
20071010 16:50	9.4	9.4	9.4	87	7.4	0	3	45	0.00	1022.591	80	0.000	0
20071010 16:55	9.5	9.5	9.5	87	7.4	3	5	45	0.00	1022.625	76	0.000	0
20071010 17:00	9.6	9.6	9.6	86	7.3	3	6	22	0.00	1022.625	71	0.040	0
20071010 17:05	9.6	9.6	9.6	86	7.4	2	5	22	0.00	1022.625	67	0.000	0
20071010 17:10	9.7	9.7	9.7	86	7.4	0	3	22	0.00	1022.591	65	0.000	0
20071010 17:15	9.7	9.7	9.7	86	7.4	2	5	45	0.00	1022.591	62	0.000	0
20071010 17:20	9.7	9.7	9.7	86	7.5	2	5	22	0.00	1022.591	61	0.000	0
20071010 17:25	9.7	9.7	9.7	86	7.5	2	3	337	0.00	1022.625	59	0.000	0
20071010 17:30	9.7	9.7	9.7	86	7.5	2	5	337	0.00	1022.523	57	0.000	0
20071010 17:35	9.7	9.7	9.7	86	7.5	0	2	337	0.00	1022.625	53	0.000	0
20071010 17:40	9.7	9.7	9.7	87	7.7	0	2	337	0.00	1022.658	48	0.000	0
20071010 17:45	9.7	9.7	9.7	86	7.5	0	2	337	0.00	1022.625	45	0.000	0
20071010 17:50	9.7	9.7	9.7	86	7.5	0	0	337	0.00	1022.625	42	0.000	0
20071010 17:55	9.7	9.7	9.7	86	7.4	0	0	337	0.00	1022.658	34	0.000	0
20071010 18:00	9.7	9.7	9.7	86	7.4	0	0	337	0.00	1022.658	30	0.020	0
20071010 18:05	9.6	9.6	9.6	86	7.4	0	0	337	0.00	1022.862	26	0.000	0
20071010 18:10	9.6	9.6	9.6	87	7.5	0	0	337	0.00	1022.862	23	0.000	0
20071010 18:15	9.5	9.5	9.5	87	7.4	0	0	337	0.00	1022.862	19	0.000	0
20071010 18:20	9.4	9.4	9.4	87	7.3	0	0	337	0.00	1022.963	15	0.000	0
20071010 18:25	9.3	9.3	9.3	88	7.4	0	0	337	0.00	1023.031	11	0.000	0
20071010 18:30	9.2	9.2	9.2	88	7.3	0	0	337	0.00	1023.099	7	0.000	0
20071010 18:35	9.0	9.0	9.0	88	7.1	0	0	337	0.00	1023.166	1	0.000	0
20071010 18:40	8.8	8.8	8.8	89	7.1	0	0	337	0.00	1023.200	0	0.000	0
20071010 18:45	8.7	8.7	8.7	89	7.0	0	0	337	0.00	1023.234	0	0.000	0
20071010 18:50	8.5	8.5	8.5	89	6.8	0	0	337	0.00	1023.437	0	0.000	0
20071010 18:55	8.3	8.3	8.3	89	6.6	0	0	337	0.00	1023.437	0	0.000	0
20071010 19:00	8.2	8.2	8.2	90	6.7	0	0	337	0.00	1023.471	0	0.000	0
20071010 19:05	8.1	8.1	8.1	90	6.5	0	0	337	0.00	1023.336	0	0.000	0
20071010 19:10	7.9	7.9	7.9	90	6.4	0	0	337	0.00	1023.573	0	0.000	0
20071010 19:15	7.8	7.8	7.8	91	6.5	0	0	337	0.00	1023.607	0	0.000	0
20071010 19:20	7.8	7.8	7.8	91	6.4	0	0	337	0.00	1023.708	0	0.000	0
20071010 19:25	7.7	7.7	7.7	91	6.3	0	0	337	0.00	1023.776	0	0.000	0
20071010 19:30	7.6	7.6	7.6	92	6.4	0	0	337	0.00	1023.844	0	0.000	0
20071010 19:35	7.5	7.5	7.5	91	6.1	0	0	337	0.00	1023.878	0	0.000	0
20071010 19:40	7.4	7.4	7.4	91	6.0	0	0	337	0.00	1023.878	0	0.000	0
20071010 19:45	7.3	7.3	7.3	92	6.1	0	0	337	0.00	1023.911	0	0.000	0
20071010 19:50	7.3	7.3	7.3	92	6.1	0	0	337	0.00	1023.979	0	0.000	0
20071010 19:55	7.3	7.3	7.3	92	6.1	0	0	337	0.00	1023.945	0	0.000	0
20071010 20:00	7.2	7.2	7.2	92	6.0	0	0	337	0.00	1024.013	0	0.000	0
20071010 20:05	7.2	7.2	7.2	92	6.0	0	0	337	0.00	1024.047	0	0.000	0
20071010 20:10	7.1	7.1	7.1	92	5.8	0	0	337	0.00	1024.115	0	0.000	0
20071010 20:15	6.9	6.9	6.9	92	5.7	0	0	337	0.00	1024.148	0	0.000	0
20071010 20:20	6.8	6.8	6.8	92	5.6	0	0	337	0.00	1024.385	0	0.000	0
20071010 20:25	6.8	6.8	6.8	92	5.6	0	0	337	0.00	1024.453	0	0.000	0
20071010 20:30	6.7	6.7	6.7	93	5.7	0	0	337	0.00	1024.487	0	0.000	0
20071010 20:35	6.7	6.7	6.7	93	5.7	0	0	337	0.00	1024.589	0	0.000	0
20071010 20:40	6.7	6.7	6.7	92	5.5	0	0	337	0.00	1024.623	0	0.000	0
20071010 20:45	6.5	6.5	6.5	92	5.3	0	0	337	0.00	1024.589	0	0.000	0
20071010 20:50	6.4	6.4	6.4	92	5.2	0	0	337	0.00	1024.623	0	0.000	0
20071010 20:55	6.2	6.2	6.2	92	5.0	0	0	337	0.00	1024.656	0	0.000	0
20071010 21:00	6.1	6.1	6.1	92	4.9	0	0	337	0.00	1024.690	0	0.000	0
20071010 21:05	6.0	6.0	6.0	92	4.8	0	0	337	0.00	1024.555	0	0.000	0
20071010 21:10	5.9	5.9	5.9	93	4.9	0	0	337	0.00	1024.453	0	0.000	0
20071010 21:15	5.9	5.9	5.9	93	4.9	0	0	337	0.00	1024.453	0	0.000	0
20071010 21:20	5.9	5.9	5.9	93	4.9	0	0	337	0.00	1024.487	0	0.000	0
20071010 21:25	5.9	5.9	5.9	93	4.8	0	0	337	0.00	1024.555	0	0.000	0
20071010 21:30	5.8	5.8	5.8	93	4.8	0	0	337	0.00	1024.656	0	0.000	0
20071010 21:35	5.7	5.7	5.7	93	4.7	0	0	337	0.00	1024.589	0	0.000	0
20071010 21:40	5.7	5.7	5.7	93	4.6	0	0	337	0.00	1024.656	0	0.000	0
20071010 21:45	5.6	5.6	5.6	93	4.5	0	0	337	0.00	1024.690	0	0.000	0
20071010 21:50	5.5	5.5	5.5	93	4.5	0	0	337	0.00	1024.724	0	0.000	0
20071010 21:55	5.4	5.4	5.4	93	4.4	0	0	337	0.00	1024.758	0	0.000	0
20071010 22:00	5.4	5.4	5.4	93	4.3	0	0	337	0.00	1024.724	0	0.000	0
20071010 22:05	5.3	5.3	5.3	93	4.3	0	0	337	0.00	1024.690	0	0.000	0
20071010 22:10	5.4	5.4	5.4	93	4.3	0	0	337	0.00	1024.690	0	0.000	0
20071010 22:15	5.4	5.4	5.4	94	4.5	0	0	337	0.00	1024.724	0	0.000	0
20071010 22:20	5.3	5.3	5.3	94	4.4	0	0	337	0.00	1024.758	0	0.000	0
20071010 22:25	5.3	5.3	5.3	93	4.2	0	0	337	0.00	1024.758	0	0.000	0
20071010 22:30	5.3	5.3	5.3	93	4.2	0	2	337	0.00	1024.859	0	0.000	0
20071010 22:35	5.3	5.3	5.3	94	4.4	0	0	337	0.00	1024.893	0	0.000	0
20071010 22:40	5.3	5.3	5.3	94	4.4	0	2	337	0.00	1024.893	0	0.000	0
20071010 22:45	5.4	5.4	5.4	94	4.6	0	2	337	0.00	1024.927	0	0.000	0
20071010 22:50	5.4	5.4	5.4	94	4.6	0	0	337	0.00	1024.995	0	0.000	0
20071010 22:55	5.4	5.4	5.4	94	4.6	0	2	337	0.00	1024.995	0	0.000	0
20071010 23:00	5.4	5.4	5.4	94	4.5	0	0	337	0.00	1025.130	0	0.000	0
20071010 23:05	5.3	5.3	5.3	93	4.2	0	2	337	0.00	1025.164	0	0.000	0
20071010 23:10	5.1	5.1	5.1	93	4.1	0	2	337	0.00	1025.198	0	0.000	0
20071010 23:15	4.7	4.7	4.7	92	3.5	0	3	337	0.00	1025.130	0	0.000	0
20071010 23:20	4.4	4.4	4.4	92	3.3	0	0	337	0.00	1025.232	0	0.000	0
20071010 23:25	4.3	4.3	4.3	93	3.3	0	0	337	0.00	1025.232	0	0.000	0
20071010 23:30	4.3	4.3	4.3	93	3.3	0	0	337	0.00	1025.130	0	0.000	0
20071010 23:35	4.4	4.4	4.4	94	3.6	0	2	0	0.00	1025.097	0	0.000	0
20071010 23:40	4.5	4.5	4.5	94	3.6	0	2	0	0.00	1025.097	0	0.000	0
20071010 23:45	4.6	4.6	4.6	94	3.7	0	2	0	0.00	1025.063	0	0.000	0
20071010 23:50	4.7	4.7	4.7	94	3.8	0	2	0	0.00	1024.927	0	0.000	0
20071010 23:55	4.8	4.8	4.8	94	3.9	0	0	0	0.00	1024.995	0	0.000	0
20071010 24:00	4.7	4.7	4.7	94	3.8	0	3	0	0.00	1024.927	0	0.000	0



Please note the license to use and transfer of this data:
http://creativecommons.org/licenses/by-nc-sa/3.0/deed.en

Bitte beachten sie die Lizenz zur Verwertung und Weitergabe der Daten:
http://creativecommons.org/licenses/by-nc-sa/3.0/deed.de

zurück zur Übersicht der Archivdaten (Monats und Tagesdaten)

Cookies helfen bei der Bereitstellung von Inhalten. Durch die Nutzung dieser Seiten erklärst du dich damit einverstanden, dass Cookies auf deinem Rechner gespeichert werden. Weitere Information